createdAt,value
2022-07-26T00:01:31.785Z,1.70
2022-07-26T00:04:39.102Z,1.60
2022-07-26T00:07:28.965Z,1.40
2022-07-26T00:10:07.382Z,1.50
2022-07-26T00:12:48.458Z,1.50
2022-07-26T00:15:37.929Z,1.60
2022-07-26T00:18:35.002Z,1.50
2022-07-26T00:21:15.709Z,1.60
2022-07-26T00:24:12.316Z,1.50
2022-07-26T00:26:44.967Z,1.00
2022-07-26T00:29:17.653Z,1.20
2022-07-26T00:32:07.623Z,1.10
2022-07-26T00:35:00.298Z,1.20
2022-07-26T00:38:17.228Z,1.30
2022-07-26T00:40:46.824Z,1.40
2022-07-26T00:43:28.296Z,1.40
2022-07-26T00:46:22.614Z,1.20
2022-07-26T00:49:39.809Z,1.30
2022-07-26T00:52:22.360Z,1.20
2022-07-26T00:55:11.071Z,1.40
2022-07-26T00:57:52.810Z,1.40
2022-07-26T01:00:35.065Z,1.60
2022-07-26T01:03:39.448Z,1.40
2022-07-26T01:05:58.663Z,1.20
2022-07-26T01:09:08.560Z,1.70
2022-07-26T01:11:37.482Z,1.40
2022-07-26T01:14:27.793Z,1.30
2022-07-26T01:17:23.334Z,1.90
2022-07-26T01:19:41.881Z,1.40
2022-07-26T01:22:29.592Z,1.70
2022-07-26T01:25:43.450Z,1.10
2022-07-26T01:28:37.429Z,1.90
2022-07-26T01:31:45.513Z,1.60
2022-07-26T01:36:37.840Z,1.70
2022-07-26T01:38:59.395Z,1.90
2022-07-26T01:42:02.711Z,1.70
2022-07-26T01:44:24.028Z,1.50
2022-07-26T01:47:05.083Z,1.30
2022-07-26T01:49:38.481Z,2.00
2022-07-26T01:52:31.148Z,1.40
2022-07-26T01:55:10.681Z,1.60
2022-07-26T01:58:30.242Z,1.70
2022-07-26T02:01:07.428Z,2.10
2022-07-26T02:04:18.827Z,1.40
2022-07-26T02:07:04.536Z,1.40
2022-07-26T02:09:39.754Z,1.40
2022-07-26T02:12:46.648Z,1.70
2022-07-26T02:15:28.928Z,1.70
2022-07-26T02:18:06.288Z,1.60
2022-07-26T02:20:34.386Z,1.70
2022-07-26T02:22:47.551Z,1.90
2022-07-26T02:25:31.777Z,1.70
2022-07-26T02:28:38.564Z,1.20
2022-07-26T02:30:56.306Z,1.90
2022-07-26T02:34:05.421Z,1.80
2022-07-26T02:36:42.176Z,1.70
2022-07-26T02:39:33.533Z,1.50
2022-07-26T02:42:12.114Z,2.00
2022-07-26T02:44:43.481Z,1.50
2022-07-26T02:50:18.132Z,1.50
2022-07-26T02:52:48.213Z,1.50
2022-07-26T02:55:48.855Z,1.50
2022-07-26T02:58:26.153Z,2.30
2022-07-26T03:00:38.594Z,2.20
2022-07-26T03:03:17.583Z,1.70
2022-07-26T03:05:59.520Z,1.60
2022-07-26T03:08:49.981Z,1.80
2022-07-26T03:11:47.046Z,2.00
2022-07-26T03:14:46.568Z,1.90
2022-07-26T03:17:44.317Z,2.00
2022-07-26T03:20:23.876Z,4.20
2022-07-26T03:23:10.812Z,3.90
2022-07-26T03:25:49.538Z,4.40
2022-07-26T03:28:35.217Z,2.30
2022-07-26T03:31:06.168Z,1.90
2022-07-26T03:33:38.710Z,1.80
2022-07-26T03:36:24.798Z,1.70
2022-07-26T03:39:15.102Z,1.90
2022-07-26T03:41:45.623Z,1.80
2022-07-26T03:44:55.454Z,2.10
2022-07-26T03:47:48.821Z,1.90
2022-07-26T03:50:34.705Z,1.90
2022-07-26T03:52:58.089Z,2.00
2022-07-26T03:56:04.337Z,1.90
2022-07-26T03:58:43.973Z,1.80
2022-07-26T04:01:30.249Z,1.50
2022-07-26T04:04:19.670Z,1.40
2022-07-26T04:06:57.866Z,1.90
2022-07-26T04:09:46.814Z,2.20
2022-07-26T04:12:26.534Z,2.20
2022-07-26T04:15:03.978Z,1.80
2022-07-26T04:17:19.542Z,2.00
2022-07-26T04:19:50.291Z,2.00
2022-07-26T04:22:38.417Z,1.90
2022-07-26T04:25:54.118Z,2.00
2022-07-26T04:28:36.624Z,1.90
2022-07-26T04:31:24.452Z,2.00
2022-07-26T04:33:51.430Z,2.40
2022-07-26T04:36:10.970Z,2.30
2022-07-26T04:39:07.500Z,2.30
2022-07-26T04:42:14.771Z,2.10
2022-07-26T04:44:48.568Z,1.80
2022-07-26T04:47:46.161Z,2.00
2022-07-26T04:50:35.536Z,2.00
2022-07-26T04:53:39.109Z,2.00
2022-07-26T04:55:52.695Z,2.10
2022-07-26T04:58:34.179Z,1.90
2022-07-26T05:03:39.621Z,2.10
2022-07-26T05:06:22.553Z,2.10
2022-07-26T05:09:23.169Z,2.50
2022-07-26T05:11:53.470Z,2.50
2022-07-26T05:14:38.892Z,2.60
2022-07-26T05:17:08.694Z,2.20
2022-07-26T05:20:21.451Z,2.20
2022-07-26T05:22:48.893Z,2.00
2022-07-26T05:25:11.091Z,2.40
2022-07-26T05:27:32.173Z,2.10
2022-07-26T05:29:56.001Z,2.80
2022-07-26T05:32:48.567Z,2.40
2022-07-26T05:35:05.450Z,2.30
2022-07-26T05:37:27.654Z,2.40
2022-07-26T05:40:54.740Z,2.40
2022-07-26T05:44:01.367Z,2.40
2022-07-26T05:46:22.972Z,2.20
2022-07-26T05:48:56.693Z,2.40
2022-07-26T05:51:20.435Z,2.30
2022-07-26T05:53:32.183Z,2.40
2022-07-26T05:56:01.064Z,2.20
2022-07-26T05:58:33.348Z,2.40
2022-07-26T06:00:48.661Z,2.50
2022-07-26T06:03:26.049Z,2.30
2022-07-26T06:05:37.203Z,2.10
2022-07-26T06:07:59.283Z,2.10
2022-07-26T06:10:29.633Z,2.40
2022-07-26T06:13:03.809Z,2.30
2022-07-26T06:16:20.465Z,2.10
2022-07-26T06:18:57.873Z,3.00
2022-07-26T06:21:51.016Z,2.10
2022-07-26T06:23:58.319Z,2.20
2022-07-26T06:26:29.028Z,2.30
2022-07-26T06:28:46.488Z,2.40
2022-07-26T06:31:42.581Z,2.40
2022-07-26T06:34:10.104Z,2.60
2022-07-26T06:36:21.932Z,2.40
2022-07-26T06:39:04.818Z,2.20
2022-07-26T06:41:48.301Z,2.10
2022-07-26T06:44:18.848Z,2.40
2022-07-26T06:47:18.253Z,2.70
2022-07-26T06:49:37.045Z,2.60
2022-07-26T06:52:02.490Z,2.40
2022-07-26T06:54:47.138Z,2.90
2022-07-26T06:57:16.038Z,2.60
2022-07-26T06:59:45.963Z,2.40
2022-07-26T07:01:59.964Z,2.90
2022-07-26T07:04:07.304Z,2.80
2022-07-26T07:06:20.729Z,2.60
2022-07-26T07:08:54.022Z,2.60
2022-07-26T07:11:21.653Z,2.90
2022-07-26T07:13:59.714Z,3.00
2022-07-26T07:16:16.255Z,2.60
2022-07-26T07:18:32.635Z,2.70
2022-07-26T07:21:19.482Z,2.60
2022-07-26T07:23:38.637Z,2.80
2022-07-26T07:26:26.609Z,2.70
2022-07-26T07:29:06.820Z,2.70
2022-07-26T07:32:03.928Z,2.70
2022-07-26T07:36:46.428Z,2.60
2022-07-26T07:39:06.621Z,2.70
2022-07-26T07:41:37.640Z,2.60
2022-07-26T07:44:47.835Z,2.40
2022-07-26T07:47:17.603Z,2.40
2022-07-26T07:49:58.399Z,3.20
2022-07-26T07:52:48.292Z,2.60
2022-07-26T07:55:36.529Z,2.50
2022-07-26T07:57:55.174Z,2.50
2022-07-26T08:00:16.979Z,2.80
2022-07-26T08:02:28.158Z,2.90
2022-07-26T08:05:18.856Z,2.60
2022-07-26T08:08:09.249Z,3.70
2022-07-26T08:10:26.105Z,2.90
2022-07-26T08:13:02.874Z,3.70
2022-07-26T08:15:59.451Z,3.20
2022-07-26T08:19:03.013Z,3.00
2022-07-26T08:21:15.709Z,3.10
2022-07-26T08:23:52.074Z,3.10
2022-07-26T08:26:16.344Z,3.10
2022-07-26T08:32:15.581Z,3.20
2022-07-26T08:35:19.827Z,2.80
2022-07-26T08:37:42.124Z,3.00
2022-07-26T08:40:48.080Z,2.90
2022-07-26T08:43:52.260Z,3.10
2022-07-26T08:46:34.932Z,3.00
2022-07-26T08:49:08.207Z,3.00
2022-07-26T08:51:59.930Z,3.10
2022-07-26T08:54:55.272Z,3.00
2022-07-26T08:57:37.031Z,2.80
2022-07-26T09:00:33.715Z,3.10
2022-07-26T09:02:57.366Z,3.20
2022-07-26T09:05:56.257Z,3.30
2022-07-26T09:08:36.805Z,3.20
2022-07-26T09:11:07.940Z,2.60
2022-07-26T09:13:36.456Z,2.90
2022-07-26T09:16:27.539Z,3.10
2022-07-26T09:19:26.119Z,2.90
2022-07-26T09:21:58.926Z,2.60
2022-07-26T09:24:34.757Z,2.80
2022-07-26T09:27:28.329Z,3.30
2022-07-26T09:29:46.686Z,2.80
2022-07-26T09:32:23.786Z,2.80
2022-07-26T09:34:51.979Z,3.00
2022-07-26T09:37:48.475Z,3.30
2022-07-26T09:40:07.557Z,3.60
2022-07-26T09:42:29.420Z,3.30
2022-07-26T09:45:12.699Z,3.50
2022-07-26T09:47:46.083Z,3.00
2022-07-26T09:50:34.153Z,3.20
2022-07-26T09:53:08.749Z,3.80
2022-07-26T09:55:24.019Z,4.10
2022-07-26T09:57:42.276Z,3.30
2022-07-26T09:59:51.902Z,4.20
2022-07-26T10:02:20.194Z,3.80
2022-07-26T10:04:57.994Z,3.30
2022-07-26T10:07:58.609Z,2.90
2022-07-26T10:10:41.733Z,3.50
2022-07-26T10:13:41.141Z,3.00
2022-07-26T10:16:46.931Z,3.00
2022-07-26T10:20:03.703Z,3.30
2022-07-26T10:23:27.285Z,3.40
2022-07-26T10:26:34.175Z,3.30
2022-07-26T10:29:47.852Z,3.20
2022-07-26T10:32:51.348Z,2.60
2022-07-26T10:35:48.195Z,3.30
2022-07-26T10:38:09.582Z,3.30
2022-07-26T10:40:41.024Z,3.00
2022-07-26T10:43:30.111Z,3.60
2022-07-26T10:46:25.038Z,2.60
2022-07-26T10:49:05.598Z,3.20
2022-07-26T10:51:46.349Z,3.20
2022-07-26T10:54:45.640Z,3.60
2022-07-26T10:57:13.334Z,3.10
2022-07-26T10:59:57.716Z,3.40
2022-07-26T11:03:00.668Z,3.00
2022-07-26T11:05:20.027Z,3.30
2022-07-26T11:09:56.186Z,3.40
2022-07-26T11:12:42.041Z,3.20
2022-07-26T11:14:55.609Z,3.00
2022-07-26T11:17:35.958Z,3.20
2022-07-26T11:20:07.834Z,3.30
2022-07-26T11:22:28.843Z,3.40
2022-07-26T11:24:48.110Z,3.20
2022-07-26T11:27:56.430Z,2.90
2022-07-26T11:30:12.805Z,3.50
2022-07-26T11:33:00.330Z,3.60
2022-07-26T11:36:00.678Z,3.60
2022-07-26T11:38:12.428Z,3.50
2022-07-26T11:40:49.186Z,3.50
2022-07-26T11:43:02.405Z,3.80
2022-07-26T11:45:16.388Z,3.50
2022-07-26T11:48:06.875Z,3.70
2022-07-26T11:50:26.453Z,3.20
2022-07-26T11:52:46.644Z,3.90
2022-07-26T11:55:31.419Z,3.30
2022-07-26T11:58:08.576Z,3.30
2022-07-26T12:00:48.255Z,3.30
2022-07-26T12:03:00.960Z,3.40
2022-07-26T12:05:59.958Z,3.30
2022-07-26T12:08:48.095Z,3.50
2022-07-26T12:11:23.888Z,2.80
2022-07-26T12:13:56.074Z,3.10
2022-07-26T12:16:46.569Z,3.50
2022-07-26T12:20:13.467Z,3.60
2022-07-26T12:23:10.604Z,3.60
2022-07-26T12:25:30.165Z,3.50
2022-07-26T12:28:16.623Z,3.10
2022-07-26T12:31:07.460Z,3.80
2022-07-26T12:33:57.688Z,3.50
2022-07-26T12:36:43.469Z,3.70
2022-07-26T12:39:34.893Z,3.80
2022-07-26T12:42:21.235Z,3.70
2022-07-26T12:44:54.596Z,4.10
2022-07-26T12:47:21.289Z,3.90
2022-07-26T12:50:09.877Z,3.70
2022-07-26T12:52:48.894Z,3.40
2022-07-26T12:55:22.237Z,3.60
2022-07-26T12:57:46.093Z,3.80
2022-07-26T13:00:23.117Z,3.90
2022-07-26T13:02:56.135Z,3.70
2022-07-26T13:06:03.427Z,3.90
2022-07-26T13:09:17.153Z,3.40
2022-07-26T13:11:41.054Z,3.80
2022-07-26T13:14:07.657Z,3.30
2022-07-26T13:16:23.736Z,4.10
2022-07-26T13:18:49.479Z,4.10
2022-07-26T13:21:03.080Z,3.80
2022-07-26T13:24:03.548Z,3.60
2022-07-26T13:26:46.895Z,3.50
2022-07-26T13:29:12.683Z,3.80
2022-07-26T13:31:45.799Z,4.00
2022-07-26T13:34:34.770Z,3.90
2022-07-26T13:37:33.038Z,4.10
2022-07-26T13:39:54.392Z,4.10
2022-07-26T13:42:37.258Z,4.50
2022-07-26T13:44:58.724Z,3.30
2022-07-26T13:47:08.858Z,4.40
2022-07-26T13:49:16.262Z,3.60
2022-07-26T13:51:42.645Z,4.00
2022-07-26T13:54:20.136Z,3.70
2022-07-26T13:56:51.068Z,3.90
2022-07-26T13:59:21.536Z,3.80
2022-07-26T14:01:43.367Z,4.50
2022-07-26T14:04:22.013Z,5.80
2022-07-26T14:06:47.588Z,5.50
2022-07-26T14:08:58.364Z,5.70
2022-07-26T14:11:43.635Z,5.50
2022-07-26T14:14:51.715Z,5.40
2022-07-26T14:17:09.484Z,5.20
2022-07-26T14:20:18.172Z,5.60
2022-07-26T14:22:58.057Z,4.80
2022-07-26T14:25:29.292Z,5.70
2022-07-26T14:27:57.133Z,5.30
2022-07-26T14:30:37.418Z,5.10
2022-07-26T14:33:06.169Z,4.70
2022-07-26T14:38:24.315Z,4.70
2022-07-26T14:41:45.542Z,4.70
2022-07-26T14:44:11.164Z,4.30
2022-07-26T14:46:38.006Z,5.10
2022-07-26T14:49:19.276Z,4.70
2022-07-26T14:52:26.680Z,4.50
2022-07-26T14:54:51.113Z,4.30
2022-07-26T14:57:24.982Z,4.50
2022-07-26T15:00:03.231Z,4.30
2022-07-26T15:02:25.617Z,5.00
2022-07-26T15:04:42.460Z,4.40
2022-07-26T15:07:42.619Z,4.70
2022-07-26T15:10:22.088Z,4.90
2022-07-26T15:13:02.093Z,4.70
2022-07-26T15:15:24.500Z,5.30
2022-07-26T15:17:41.619Z,4.80
2022-07-26T15:20:33.387Z,5.30
2022-07-26T15:22:50.777Z,4.40
2022-07-26T15:25:15.456Z,4.70
2022-07-26T15:27:55.250Z,4.50
2022-07-26T15:30:13.608Z,4.60
2022-07-26T15:32:44.956Z,4.50
2022-07-26T15:35:57.017Z,4.70
2022-07-26T15:38:26.938Z,4.70
2022-07-26T15:41:10.636Z,5.70
2022-07-26T15:43:56.552Z,4.80
2022-07-26T15:46:29.519Z,4.60
2022-07-26T15:49:19.158Z,4.10
2022-07-26T15:51:49.749Z,4.50
2022-07-26T15:54:25.878Z,5.60
2022-07-26T15:57:25.957Z,5.20
2022-07-26T16:00:01.161Z,5.60
2022-07-26T16:02:30.000Z,6.00
2022-07-26T16:05:09.997Z,6.80
2022-07-26T16:07:38.068Z,6.80
2022-07-26T16:10:18.913Z,5.60
2022-07-26T16:13:45.708Z,6.10
2022-07-26T16:16:26.264Z,5.10
2022-07-26T16:19:13.705Z,5.20
2022-07-26T16:21:37.431Z,5.50
2022-07-26T16:24:39.186Z,5.70
2022-07-26T16:27:31.342Z,5.70
2022-07-26T16:30:00.837Z,5.60
2022-07-26T16:32:53.254Z,5.20
2022-07-26T16:35:26.289Z,4.80
2022-07-26T16:38:25.878Z,4.80
2022-07-26T16:41:01.312Z,5.50
2022-07-26T16:43:44.108Z,5.40
2022-07-26T16:46:15.858Z,5.40
2022-07-26T16:49:04.831Z,4.20
2022-07-26T16:52:06.538Z,4.20
2022-07-26T16:54:27.742Z,4.80
2022-07-26T16:56:51.389Z,4.90
2022-07-26T16:59:52.750Z,5.50
2022-07-26T17:02:59.379Z,4.70
2022-07-26T17:05:56.928Z,5.00
2022-07-26T17:08:30.183Z,5.30
2022-07-26T17:10:50.068Z,4.80
2022-07-26T17:13:41.575Z,4.80
2022-07-26T17:17:07.432Z,4.90
2022-07-26T17:19:27.551Z,4.60
2022-07-26T17:21:57.656Z,5.00
2022-07-26T17:24:47.623Z,4.70
2022-07-26T17:27:29.510Z,5.40
2022-07-26T17:30:12.817Z,5.20
2022-07-26T17:32:36.751Z,5.90
2022-07-26T17:35:19.506Z,5.70
2022-07-26T17:38:04.599Z,4.90
2022-07-26T17:40:44.832Z,4.80
2022-07-26T17:46:22.527Z,4.60
2022-07-26T17:49:00.257Z,5.00
2022-07-26T17:51:58.648Z,5.40
2022-07-26T17:55:06.069Z,5.20
2022-07-26T17:57:49.651Z,4.60
2022-07-26T18:00:21.987Z,4.80
2022-07-26T18:03:00.322Z,5.00
2022-07-26T18:05:35.018Z,5.20
2022-07-26T18:08:19.977Z,5.40
2022-07-26T18:11:46.445Z,5.30
2022-07-26T18:14:24.987Z,5.20
2022-07-26T18:17:13.650Z,4.60
2022-07-26T18:20:02.045Z,5.20
2022-07-26T18:22:31.303Z,5.10
2022-07-26T18:25:15.243Z,4.80
2022-07-26T18:28:17.310Z,4.70
2022-07-26T18:30:45.389Z,4.40
2022-07-26T18:33:46.150Z,4.60
2022-07-26T18:36:05.801Z,4.10
2022-07-26T18:38:46.563Z,4.00
2022-07-26T18:42:03.400Z,4.50
2022-07-26T18:44:25.125Z,4.00
2022-07-26T18:47:04.842Z,4.00
2022-07-26T18:49:22.851Z,3.60
2022-07-26T18:51:52.311Z,3.70
2022-07-26T18:54:50.475Z,3.60
2022-07-26T18:57:10.971Z,2.90
2022-07-26T18:59:54.155Z,4.40
2022-07-26T19:03:21.183Z,3.60
2022-07-26T19:06:19.217Z,4.40
2022-07-26T19:08:48.972Z,3.50
2022-07-26T19:11:10.652Z,4.00
2022-07-26T19:13:44.585Z,4.00
2022-07-26T19:16:55.119Z,3.30
2022-07-26T19:19:45.208Z,3.30
2022-07-26T19:22:24.454Z,3.20
2022-07-26T19:25:25.943Z,3.60
2022-07-26T19:28:05.256Z,3.40
2022-07-26T19:30:26.440Z,3.40
2022-07-26T19:32:39.944Z,2.90
2022-07-26T19:35:38.470Z,3.20
2022-07-26T19:38:22.529Z,3.30
2022-07-26T19:40:46.071Z,3.20
2022-07-26T19:43:27.771Z,3.40
2022-07-26T19:46:16.380Z,3.50
2022-07-26T19:49:05.601Z,3.40
2022-07-26T19:51:35.479Z,3.60
2022-07-26T19:54:45.188Z,3.60
2022-07-26T19:57:37.687Z,3.30
2022-07-26T20:00:02.970Z,3.90
2022-07-26T20:02:42.087Z,3.00
2022-07-26T20:05:22.161Z,4.20
2022-07-26T20:07:59.262Z,3.60
2022-07-26T20:10:10.561Z,3.80
2022-07-26T20:13:02.095Z,3.20
2022-07-26T20:15:43.667Z,4.20
2022-07-26T20:18:32.117Z,4.00
2022-07-26T20:21:06.519Z,3.10
2022-07-26T20:24:14.171Z,3.60
2022-07-26T20:27:03.138Z,3.50
2022-07-26T20:29:19.290Z,4.00
2022-07-26T20:32:29.049Z,3.10
2022-07-26T20:37:24.242Z,4.00
2022-07-26T20:39:46.089Z,3.10
2022-07-26T20:42:21.934Z,2.80
2022-07-26T20:45:11.476Z,3.20
2022-07-26T20:48:03.702Z,3.40
2022-07-26T20:50:16.166Z,3.30
2022-07-26T20:53:11.766Z,2.60
2022-07-26T20:56:08.916Z,2.90
2022-07-26T20:58:39.233Z,2.90
2022-07-26T21:01:25.678Z,3.00
2022-07-26T21:04:02.639Z,3.10
2022-07-26T21:06:20.282Z,2.70
2022-07-26T21:09:19.661Z,2.80
2022-07-26T21:11:53.416Z,2.90
2022-07-26T21:14:14.285Z,2.80
2022-07-26T21:17:02.165Z,3.20
2022-07-26T21:19:42.226Z,3.10
2022-07-26T21:22:28.843Z,2.60
2022-07-26T21:25:12.841Z,3.60
2022-07-26T21:28:23.387Z,3.00
2022-07-26T21:31:23.924Z,3.60
2022-07-26T21:34:13.133Z,3.90
2022-07-26T21:37:30.730Z,3.50
2022-07-26T21:40:32.379Z,3.70
2022-07-26T21:43:13.154Z,4.20
2022-07-26T21:46:01.154Z,4.50
2022-07-26T21:48:32.652Z,3.10
2022-07-26T21:50:49.667Z,3.00
2022-07-26T21:53:20.064Z,3.10
2022-07-26T21:55:55.958Z,3.30
2022-07-26T21:58:46.871Z,2.80
2022-07-26T22:01:15.990Z,3.00
2022-07-26T22:04:35.495Z,3.20
2022-07-26T22:07:29.072Z,2.90
2022-07-26T22:10:01.992Z,3.00
2022-07-26T22:12:43.147Z,2.90
2022-07-26T22:15:13.877Z,3.30
2022-07-26T22:17:47.184Z,2.70
2022-07-26T22:20:47.999Z,2.70
2022-07-26T22:23:28.763Z,4.80
2022-07-26T22:26:02.983Z,2.90
2022-07-26T22:28:34.045Z,3.80
2022-07-26T22:31:31.720Z,2.90
2022-07-26T22:34:20.275Z,1.90
2022-07-26T22:36:45.283Z,2.50
2022-07-26T22:39:46.591Z,1.70
2022-07-26T22:42:24.705Z,2.20
2022-07-26T22:45:21.963Z,2.40
2022-07-26T22:47:37.089Z,2.10
2022-07-26T22:50:27.127Z,2.20
2022-07-26T22:53:15.075Z,2.40
2022-07-26T22:56:13.172Z,2.30
2022-07-26T22:59:26.655Z,2.20
2022-07-26T23:01:50.645Z,2.30
2022-07-26T23:04:53.533Z,2.30
2022-07-26T23:07:52.839Z,2.10
2022-07-26T23:11:12.767Z,1.70
2022-07-26T23:14:13.138Z,2.60
2022-07-26T23:17:10.213Z,2.70
2022-07-26T23:19:40.821Z,2.20
2022-07-26T23:21:53.348Z,2.60
2022-07-26T23:24:07.230Z,2.50
2022-07-26T23:26:42.570Z,2.70
2022-07-26T23:29:21.352Z,2.20
2022-07-26T23:32:18.798Z,2.70
2022-07-26T23:35:17.931Z,2.50
2022-07-26T23:38:01.373Z,2.70
2022-07-26T23:40:49.628Z,2.70
2022-07-26T23:43:58.686Z,2.40
2022-07-26T23:46:54.242Z,2.10
2022-07-26T23:49:40.945Z,2.00
2022-07-26T23:52:18.851Z,2.40
2022-07-26T23:54:42.834Z,2.50
2022-07-26T23:57:19.113Z,2.40
